createdAt,value
2022-08-21T00:00:44.228Z,14.64
2022-08-21T00:03:11.943Z,14.69
2022-08-21T00:05:45.956Z,14.77
2022-08-21T00:08:12.418Z,14.74
2022-08-21T00:10:40.818Z,14.62
2022-08-21T00:13:08.180Z,14.69
2022-08-21T00:15:37.112Z,14.24
2022-08-21T00:18:05.362Z,14.51
2022-08-21T00:20:32.634Z,14.49
2022-08-21T00:22:59.399Z,14.52
2022-08-21T00:25:26.435Z,14.45
2022-08-21T00:27:53.642Z,14.47
2022-08-21T00:30:23.015Z,14.33
2022-08-21T00:32:51.006Z,14.49
2022-08-21T00:35:19.707Z,14.29
2022-08-21T00:37:46.222Z,14.35
2022-08-21T00:40:16.933Z,14.30
2022-08-21T00:42:44.774Z,14.37
2022-08-21T00:45:20.266Z,14.03
2022-08-21T00:47:46.789Z,14.29
2022-08-21T00:50:21.936Z,14.17
2022-08-21T00:52:52.046Z,13.80
2022-08-21T00:55:20.851Z,13.82
2022-08-21T00:57:52.980Z,13.83
2022-08-21T01:00:26.218Z,13.82
2022-08-21T01:02:52.725Z,13.68
2022-08-21T01:05:19.237Z,13.74
2022-08-21T01:07:46.094Z,13.92
2022-08-21T01:10:20.579Z,14.00
2022-08-21T01:12:53.759Z,13.66
2022-08-21T01:15:21.445Z,13.58
2022-08-21T01:17:50.094Z,13.34
2022-08-21T01:20:17.434Z,13.07
2022-08-21T01:22:43.947Z,12.85
2022-08-21T01:25:12.713Z,12.92
2022-08-21T01:27:39.743Z,12.61
2022-08-21T01:30:16.826Z,12.83
2022-08-21T01:32:43.608Z,13.00
2022-08-21T01:35:12.182Z,13.08
2022-08-21T01:37:39.437Z,13.17
2022-08-21T01:40:07.556Z,13.12
2022-08-21T01:42:34.214Z,13.14
2022-08-21T01:45:00.876Z,13.26
2022-08-21T01:47:27.903Z,13.28
2022-08-21T01:49:54.439Z,13.16
2022-08-21T01:52:20.958Z,13.15
2022-08-21T01:54:51.132Z,13.13
2022-08-21T01:57:26.315Z,13.09
2022-08-21T01:59:53.850Z,13.14
2022-08-21T02:02:20.448Z,13.10
2022-08-21T02:04:46.889Z,13.03
2022-08-21T02:07:13.443Z,12.82
2022-08-21T02:09:43.045Z,12.87
2022-08-21T02:12:11.482Z,12.94
2022-08-21T02:14:38.385Z,12.81
2022-08-21T02:17:09.025Z,12.50
2022-08-21T02:23:27.210Z,12.26
2022-08-21T02:25:58.240Z,12.33
2022-08-21T02:28:24.731Z,12.61
2022-08-21T02:30:53.264Z,12.57
2022-08-21T02:33:20.001Z,12.71
2022-08-21T02:35:48.435Z,12.54
2022-08-21T02:38:21.566Z,12.53
2022-08-21T02:40:51.155Z,12.34
2022-08-21T02:43:19.589Z,12.17
2022-08-21T02:45:47.384Z,12.01
2022-08-21T02:48:17.359Z,12.11
2022-08-21T02:50:49.486Z,12.08
2022-08-21T02:53:17.608Z,12.04
2022-08-21T02:55:49.495Z,12.20
2022-08-21T02:58:20.673Z,12.11
2022-08-21T03:00:47.726Z,12.10
2022-08-21T03:03:15.382Z,12.07
2022-08-21T03:05:43.586Z,11.89
2022-08-21T03:08:12.322Z,12.03
2022-08-21T03:10:40.852Z,12.03
2022-08-21T03:13:08.252Z,12.01
2022-08-21T03:15:35.190Z,11.96
2022-08-21T03:18:02.097Z,11.83
2022-08-21T03:20:29.397Z,11.59
2022-08-21T03:22:56.495Z,11.51
2022-08-21T03:25:33.762Z,11.60
2022-08-21T03:28:12.787Z,11.71
2022-08-21T03:30:41.082Z,11.84
2022-08-21T03:33:07.544Z,11.68
2022-08-21T03:35:34.193Z,11.69
2022-08-21T03:38:00.636Z,11.71
2022-08-21T03:40:27.203Z,11.83
2022-08-21T03:42:54.036Z,11.56
2022-08-21T03:45:21.077Z,11.27
2022-08-21T03:47:56.797Z,11.28
2022-08-21T03:50:25.178Z,11.41
2022-08-21T03:52:51.705Z,11.44
2022-08-21T03:55:18.795Z,11.55
2022-08-21T03:57:45.413Z,11.36
2022-08-21T04:00:14.260Z,11.29
2022-08-21T04:02:41.201Z,11.40
2022-08-21T04:05:08.598Z,11.21
2022-08-21T04:07:35.229Z,11.24
2022-08-21T04:10:01.728Z,11.36
2022-08-21T04:12:28.230Z,11.31
2022-08-21T04:14:54.720Z,11.43
2022-08-21T04:17:21.178Z,11.45
2022-08-21T04:19:51.790Z,11.25
2022-08-21T04:22:20.219Z,11.40
2022-08-21T04:24:46.713Z,11.43
2022-08-21T04:27:13.167Z,11.44
2022-08-21T04:29:40.253Z,11.49
2022-08-21T04:32:07.315Z,11.52
2022-08-21T04:34:34.005Z,11.55
2022-08-21T04:37:00.410Z,11.59
2022-08-21T04:39:29.806Z,11.57
2022-08-21T04:41:56.514Z,11.46
2022-08-21T04:44:22.936Z,11.40
2022-08-21T04:46:49.493Z,11.10
2022-08-21T04:49:15.965Z,11.00
2022-08-21T04:51:42.499Z,11.06
2022-08-21T04:54:17.996Z,10.86
2022-08-21T04:57:00.537Z,10.85
2022-08-21T04:59:38.971Z,10.85
2022-08-21T05:02:07.052Z,10.76
2022-08-21T05:04:37.786Z,10.68
2022-08-21T05:07:08.102Z,10.65
2022-08-21T05:09:35.516Z,10.71
2022-08-21T05:12:03.352Z,10.74
2022-08-21T05:14:29.898Z,10.78
2022-08-21T05:16:56.654Z,10.80
2022-08-21T05:19:24.406Z,10.98
2022-08-21T05:21:51.102Z,11.21
2022-08-21T05:24:18.707Z,11.27
2022-08-21T05:26:46.640Z,11.39
2022-08-21T05:29:16.362Z,11.50
2022-08-21T05:31:43.559Z,11.55
2022-08-21T05:34:09.978Z,11.75
2022-08-21T05:36:36.986Z,11.87
2022-08-21T05:39:04.004Z,11.85
2022-08-21T05:41:30.456Z,12.19
2022-08-21T05:44:00.745Z,12.50
2022-08-21T05:46:27.221Z,12.93
2022-08-21T05:48:53.652Z,13.44
2022-08-21T05:51:20.198Z,13.92
2022-08-21T05:53:47.180Z,14.31
2022-08-21T05:56:14.626Z,14.74
2022-08-21T05:58:41.070Z,14.51
2022-08-21T06:01:08.272Z,14.76
2022-08-21T06:03:37.808Z,14.94
2022-08-21T06:06:04.631Z,15.14
2022-08-21T06:08:32.137Z,15.42
2022-08-21T06:11:00.971Z,16.03
2022-08-21T06:13:27.931Z,16.72
2022-08-21T06:16:07.225Z,17.45
2022-08-21T06:18:34.680Z,17.88
2022-08-21T06:21:01.264Z,18.07
2022-08-21T06:23:31.675Z,18.51
2022-08-21T06:25:59.987Z,18.81
2022-08-21T06:28:26.485Z,19.10
2022-08-21T06:30:53.193Z,19.39
2022-08-21T06:33:20.170Z,19.75
2022-08-21T06:35:46.640Z,19.88
2022-08-21T06:38:13.165Z,20.11
2022-08-21T06:40:43.742Z,20.32
2022-08-21T06:43:15.637Z,20.58
2022-08-21T06:45:43.140Z,20.85
2022-08-21T06:48:09.680Z,21.20
2022-08-21T06:50:36.418Z,21.42
2022-08-21T06:53:08.358Z,21.56
2022-08-21T06:55:35.513Z,21.67
2022-08-21T06:58:02.082Z,21.89
2022-08-21T07:00:28.721Z,22.16
2022-08-21T07:02:55.181Z,22.32
2022-08-21T07:05:22.465Z,22.57
2022-08-21T07:07:48.968Z,22.78
2022-08-21T07:10:22.369Z,22.94
2022-08-21T07:13:00.074Z,23.07
2022-08-21T07:15:29.251Z,23.32
2022-08-21T07:17:57.983Z,23.60
2022-08-21T07:20:24.470Z,23.87
2022-08-21T07:22:51.525Z,23.90
2022-08-21T07:25:18.012Z,24.25
2022-08-21T07:27:44.534Z,24.52
2022-08-21T07:30:11.213Z,24.75
2022-08-21T07:32:37.750Z,24.93
2022-08-21T07:35:04.601Z,25.13
2022-08-21T07:37:31.199Z,25.29
2022-08-21T07:39:57.812Z,25.51
2022-08-21T07:42:24.341Z,25.61
2022-08-21T07:44:53.136Z,25.74
2022-08-21T07:47:41.579Z,25.98
2022-08-21T07:50:13.827Z,26.10
2022-08-21T07:52:41.762Z,26.31
2022-08-21T07:55:11.863Z,26.38
2022-08-21T07:57:38.667Z,26.56
2022-08-21T08:00:07.855Z,26.66
2022-08-21T08:02:39.400Z,26.75
2022-08-21T08:05:08.650Z,26.81
2022-08-21T08:07:35.337Z,26.77
2022-08-21T08:10:03.321Z,26.78
2022-08-21T08:12:30.539Z,26.96
2022-08-21T08:14:58.705Z,27.00
2022-08-21T08:17:29.065Z,27.17
2022-08-21T08:19:56.265Z,27.34
2022-08-21T08:22:27.203Z,27.40
2022-08-21T08:24:54.853Z,27.29
2022-08-21T08:27:22.067Z,27.22
2022-08-21T08:29:49.459Z,27.32
2022-08-21T08:32:15.948Z,27.58
2022-08-21T08:34:42.402Z,27.58
2022-08-21T08:37:10.682Z,27.70
2022-08-21T08:39:37.300Z,27.76
2022-08-21T08:42:32.805Z,27.65
2022-08-21T08:45:14.074Z,27.85
2022-08-21T08:47:45.578Z,27.99
2022-08-21T08:50:22.633Z,27.42
2022-08-21T08:52:58.772Z,27.17
2022-08-21T08:55:33.027Z,26.91
2022-08-21T08:57:59.662Z,27.17
2022-08-21T09:00:26.303Z,27.63
2022-08-21T09:02:56.079Z,27.49
2022-08-21T09:05:29.621Z,27.13
2022-08-21T09:08:05.234Z,27.35
2022-08-21T09:10:54.601Z,27.46
2022-08-21T09:13:38.705Z,27.29
2022-08-21T09:16:39.475Z,27.39
2022-08-21T09:19:24.714Z,27.75
2022-08-21T09:22:08.300Z,28.18
2022-08-21T09:24:51.805Z,28.52
2022-08-21T09:27:19.994Z,28.09
2022-08-21T09:29:52.806Z,28.40
2022-08-21T09:32:23.671Z,28.55
2022-08-21T09:35:09.600Z,28.02
2022-08-21T09:37:46.125Z,27.91
2022-08-21T09:40:32.831Z,28.18
2022-08-21T09:43:14.461Z,28.54
2022-08-21T09:45:43.422Z,28.63
2022-08-21T09:48:18.841Z,28.18
2022-08-21T09:50:46.172Z,28.50
2022-08-21T09:53:22.794Z,28.28
2022-08-21T09:56:24.311Z,27.06
2022-08-21T09:58:52.579Z,25.37
2022-08-21T10:01:22.774Z,25.40
2022-08-21T10:04:02.655Z,25.94
2022-08-21T10:06:29.688Z,26.23
2022-08-21T10:09:21.104Z,26.60
2022-08-21T10:12:24.165Z,26.54
2022-08-21T10:15:20.218Z,26.99
2022-08-21T10:18:08.230Z,27.47
2022-08-21T10:20:56.937Z,27.62
2022-08-21T10:23:39.863Z,27.58
2022-08-21T10:26:13.847Z,27.70
2022-08-21T10:28:44.154Z,27.75
2022-08-21T10:31:27.567Z,27.87
2022-08-21T10:34:07.017Z,28.09
2022-08-21T10:36:44.406Z,27.92
2022-08-21T10:39:36.062Z,28.47
2022-08-21T10:42:25.979Z,28.68
2022-08-21T10:45:19.750Z,28.99
2022-08-21T10:47:57.851Z,29.12
2022-08-21T10:50:36.650Z,29.02
2022-08-21T10:53:30.198Z,29.05
2022-08-21T10:56:29.457Z,29.05
2022-08-21T10:59:24.566Z,27.57
2022-08-21T11:01:58.191Z,27.77
2022-08-21T11:04:54.727Z,28.25
2022-08-21T11:07:36.299Z,28.28
2022-08-21T11:10:17.307Z,27.92
2022-08-21T11:12:53.025Z,28.11
2022-08-21T11:15:46.333Z,28.26
2022-08-21T11:18:31.850Z,28.52
2022-08-21T11:21:11.384Z,28.21
2022-08-21T11:24:04.655Z,28.30
2022-08-21T11:26:42.190Z,28.38
2022-08-21T11:29:15.025Z,28.53
2022-08-21T11:32:02.106Z,28.52
2022-08-21T11:34:58.374Z,28.07
2022-08-21T11:37:56.849Z,28.40
2022-08-21T11:40:45.426Z,28.02
2022-08-21T11:43:39.059Z,26.79
2022-08-21T11:46:11.511Z,26.58
2022-08-21T11:48:50.161Z,26.92
2022-08-21T11:51:26.871Z,27.01
2022-08-21T11:54:07.354Z,27.26
2022-08-21T11:56:39.970Z,27.46
2022-08-21T11:59:12.009Z,27.55
2022-08-21T12:01:45.519Z,27.76
2022-08-21T12:04:32.170Z,27.70
2022-08-21T12:07:11.718Z,27.78
2022-08-21T12:09:38.279Z,28.00
2022-08-21T12:12:12.456Z,28.07
2022-08-21T12:14:43.451Z,28.21
2022-08-21T12:17:22.215Z,28.30
2022-08-21T12:20:19.334Z,28.42
2022-08-21T12:22:53.513Z,28.43
2022-08-21T12:25:22.645Z,28.66
2022-08-21T12:27:53.674Z,28.67
2022-08-21T12:30:44.597Z,28.67
2022-08-21T12:33:31.761Z,28.57
2022-08-21T12:36:15.065Z,28.30
2022-08-21T12:38:51.985Z,27.90
2022-08-21T12:41:33.776Z,27.90
2022-08-21T12:44:06.538Z,27.95
2022-08-21T12:46:41.138Z,27.91
2022-08-21T12:49:26.943Z,28.00
2022-08-21T12:52:02.731Z,28.21
2022-08-21T12:54:32.067Z,28.26
2022-08-21T12:57:05.227Z,28.09
2022-08-21T12:59:32.658Z,27.76
2022-08-21T13:02:13.415Z,27.55
2022-08-21T13:04:42.124Z,27.56
2022-08-21T13:07:13.170Z,27.89
2022-08-21T13:09:51.570Z,28.03
2022-08-21T13:12:20.861Z,28.16
2022-08-21T13:14:48.339Z,28.28
2022-08-21T13:17:25.581Z,28.43
2022-08-21T13:20:02.080Z,28.26
2022-08-21T13:22:33.560Z,28.37
2022-08-21T13:25:06.489Z,28.29
2022-08-21T13:27:33.511Z,28.36
2022-08-21T13:30:11.451Z,28.35
2022-08-21T13:32:52.658Z,28.39
2022-08-21T13:35:22.328Z,28.15
2022-08-21T13:37:52.657Z,28.12
2022-08-21T13:40:31.262Z,28.18
2022-08-21T13:42:58.783Z,27.21
2022-08-21T13:45:32.151Z,27.38
2022-08-21T13:48:06.252Z,27.47
2022-08-21T13:50:36.005Z,27.56
2022-08-21T13:53:08.295Z,27.78
2022-08-21T13:55:38.442Z,27.86
2022-08-21T13:58:05.800Z,27.76
2022-08-21T14:00:36.319Z,27.83
2022-08-21T14:03:10.169Z,27.98
2022-08-21T14:05:44.224Z,28.06
2022-08-21T14:08:21.346Z,28.14
2022-08-21T14:10:57.411Z,28.18
2022-08-21T14:13:42.614Z,28.24
2022-08-21T14:16:41.325Z,28.13
2022-08-21T14:19:23.113Z,28.06
2022-08-21T14:21:50.008Z,27.61
2022-08-21T14:24:22.429Z,27.33
2022-08-21T14:26:56.448Z,27.21
2022-08-21T14:29:32.634Z,27.14
2022-08-21T14:32:21.908Z,27.19
2022-08-21T14:34:51.849Z,27.22
2022-08-21T14:37:18.652Z,27.35
2022-08-21T14:39:45.811Z,27.36
2022-08-21T14:42:13.346Z,27.22
2022-08-21T14:44:40.377Z,27.12
2022-08-21T14:47:06.878Z,27.12
2022-08-21T14:49:33.351Z,27.12
2022-08-21T14:51:59.888Z,27.19
2022-08-21T14:54:32.194Z,27.26
2022-08-21T14:57:06.588Z,27.20
2022-08-21T14:59:34.085Z,27.33
2022-08-21T15:02:01.386Z,27.48
2022-08-21T15:04:27.838Z,27.40
2022-08-21T15:06:54.444Z,27.41
2022-08-21T15:09:20.882Z,26.94
2022-08-21T15:11:47.487Z,27.19
2022-08-21T15:14:21.053Z,27.24
2022-08-21T15:16:48.946Z,26.50
2022-08-21T15:19:15.519Z,26.48
2022-08-21T15:21:42.090Z,26.54
2022-08-21T15:24:08.570Z,26.43
2022-08-21T15:26:36.582Z,26.65
2022-08-21T15:29:06.783Z,26.80
2022-08-21T15:31:33.946Z,26.94
2022-08-21T15:34:00.375Z,26.84
2022-08-21T15:36:26.906Z,27.00
2022-08-21T15:38:53.442Z,27.04
2022-08-21T15:41:20.077Z,27.23
2022-08-21T15:43:50.893Z,27.36
2022-08-21T15:46:19.604Z,27.50
2022-08-21T15:48:47.105Z,27.47
2022-08-21T15:51:15.162Z,27.59
2022-08-21T15:53:41.734Z,27.70
2022-08-21T15:56:21.077Z,27.76
2022-08-21T15:58:47.618Z,27.80
2022-08-21T16:01:14.178Z,27.88
2022-08-21T16:03:40.685Z,27.63
2022-08-21T16:06:09.451Z,27.79
2022-08-21T16:08:35.871Z,27.69
2022-08-21T16:11:02.552Z,27.66
2022-08-21T16:13:37.353Z,27.54
2022-08-21T16:16:04.939Z,27.61
2022-08-21T16:18:31.858Z,27.52
2022-08-21T16:20:58.717Z,27.67
2022-08-21T16:23:25.206Z,27.71
2022-08-21T16:25:51.763Z,27.53
2022-08-21T16:28:21.642Z,26.96
2022-08-21T16:30:49.855Z,27.06
2022-08-21T16:33:27.818Z,27.16
2022-08-21T16:35:54.437Z,27.13
2022-08-21T16:38:21.061Z,27.04
2022-08-21T16:40:47.705Z,27.12
2022-08-21T16:43:14.945Z,26.96
2022-08-21T16:45:43.147Z,26.89
2022-08-21T16:48:10.080Z,26.71
2022-08-21T16:50:37.904Z,26.49
2022-08-21T16:53:04.714Z,26.27
2022-08-21T16:55:31.480Z,26.21
2022-08-21T16:57:58.044Z,26.14
2022-08-21T17:00:24.449Z,25.74
2022-08-21T17:02:54.787Z,25.77
2022-08-21T17:05:21.296Z,25.48
2022-08-21T17:07:47.892Z,25.99
2022-08-21T17:10:16.194Z,25.96
2022-08-21T17:12:47.032Z,26.20
2022-08-21T17:15:29.442Z,26.15
2022-08-21T17:17:56.550Z,26.30
2022-08-21T17:20:23.627Z,25.91
2022-08-21T17:22:50.218Z,25.69
2022-08-21T17:25:16.767Z,25.25
2022-08-21T17:27:44.421Z,25.12
2022-08-21T17:30:12.416Z,25.07
2022-08-21T17:32:39.023Z,24.91
2022-08-21T17:35:05.995Z,24.90
2022-08-21T17:37:32.668Z,25.01
2022-08-21T17:39:59.879Z,24.93
2022-08-21T17:42:27.267Z,24.88
2022-08-21T17:44:53.757Z,24.83
2022-08-21T17:47:20.183Z,24.71
2022-08-21T17:49:46.691Z,24.78
2022-08-21T17:52:13.208Z,24.84
2022-08-21T17:54:41.053Z,24.74
2022-08-21T17:57:08.717Z,24.84
2022-08-21T17:59:35.186Z,24.68
2022-08-21T18:02:03.686Z,24.62
2022-08-21T18:04:31.262Z,24.49
2022-08-21T18:06:58.034Z,24.15
2022-08-21T18:09:28.032Z,24.54
2022-08-21T18:11:57.242Z,24.39
2022-08-21T18:14:30.871Z,24.44
2022-08-21T18:16:57.599Z,24.39
2022-08-21T18:19:26.030Z,24.35
2022-08-21T18:21:54.490Z,24.27
2022-08-21T18:24:22.274Z,24.23
2022-08-21T18:26:49.567Z,23.91
2022-08-21T18:29:19.586Z,23.95
2022-08-21T18:31:47.298Z,23.84
2022-08-21T18:34:24.188Z,23.75
2022-08-21T18:36:52.054Z,23.68
2022-08-21T18:39:36.011Z,23.52
2022-08-21T18:42:07.879Z,23.10
2022-08-21T18:44:34.678Z,23.18
2022-08-21T18:47:06.240Z,23.15
2022-08-21T18:49:33.159Z,22.99
2022-08-21T18:52:00.715Z,22.87
2022-08-21T18:54:30.184Z,22.72
2022-08-21T18:56:56.616Z,22.36
2022-08-21T18:59:26.723Z,22.19
2022-08-21T19:01:53.866Z,22.07
2022-08-21T19:11:23.480Z,21.77
2022-08-21T19:13:53.109Z,21.68
2022-08-21T19:16:21.648Z,21.76
2022-08-21T19:22:56.333Z,21.65
2022-08-21T19:25:33.268Z,21.53
2022-08-21T19:28:10.897Z,21.22
2022-08-21T19:30:53.368Z,21.31
2022-08-21T19:33:27.463Z,21.17
2022-08-21T19:35:54.136Z,21.07
2022-08-21T19:38:21.413Z,21.05
2022-08-21T19:40:48.858Z,20.91
2022-08-21T19:43:15.867Z,20.89
2022-08-21T19:45:49.408Z,20.81
2022-08-21T19:48:16.527Z,20.77
2022-08-21T19:50:45.809Z,20.37
2022-08-21T19:53:12.435Z,20.23
2022-08-21T19:55:43.434Z,20.20
2022-08-21T19:58:31.988Z,20.19
2022-08-21T20:00:58.951Z,19.82
2022-08-21T20:03:28.649Z,19.98
2022-08-21T20:05:57.695Z,19.63
2022-08-21T20:08:27.981Z,19.94
2022-08-21T20:10:57.491Z,20.00
2022-08-21T20:13:25.754Z,19.85
2022-08-21T20:15:53.832Z,19.52
2022-08-21T20:18:26.902Z,19.98
2022-08-21T20:20:54.396Z,19.95
2022-08-21T20:23:29.862Z,19.82
2022-08-21T20:26:00.744Z,19.70
2022-08-21T20:28:29.343Z,19.68
2022-08-21T20:30:57.050Z,19.77
2022-08-21T20:33:24.220Z,19.78
2022-08-21T20:35:54.055Z,19.58
2022-08-21T20:38:21.685Z,19.67
2022-08-21T20:40:51.067Z,19.64
2022-08-21T20:43:20.028Z,19.63
2022-08-21T20:45:47.429Z,19.58
2022-08-21T20:48:30.985Z,19.55
2022-08-21T20:51:06.574Z,19.47
2022-08-21T20:53:42.838Z,19.42
2022-08-21T20:56:29.941Z,19.33
2022-08-21T20:59:30.021Z,18.90
2022-08-21T21:02:21.987Z,18.83
2022-08-21T21:05:01.887Z,18.48
2022-08-21T21:07:35.607Z,18.22
2022-08-21T21:10:05.976Z,18.45
2022-08-21T21:15:29.861Z,18.53
2022-08-21T21:18:05.184Z,18.68
2022-08-21T21:20:51.538Z,18.70
2022-08-21T21:23:51.807Z,18.71
2022-08-21T21:26:23.175Z,18.69
2022-08-21T21:29:16.909Z,18.43
2022-08-21T21:31:43.436Z,18.48
2022-08-21T21:37:05.137Z,18.36
2022-08-21T21:39:54.276Z,18.19
2022-08-21T21:42:38.372Z,18.08
2022-08-21T21:45:07.590Z,17.90
2022-08-21T21:47:53.258Z,17.44
2022-08-21T21:50:50.951Z,17.29
2022-08-21T21:53:20.769Z,17.38
2022-08-21T21:56:00.366Z,17.44
2022-08-21T21:59:09.946Z,17.66
2022-08-21T22:01:45.762Z,17.54
2022-08-21T22:04:35.417Z,17.53
2022-08-21T22:07:25.126Z,17.48
2022-08-21T22:09:59.303Z,17.51
2022-08-21T22:12:32.748Z,17.14
2022-08-21T22:14:59.257Z,17.13
2022-08-21T22:17:25.706Z,17.31
2022-08-21T22:19:54.395Z,17.29
2022-08-21T22:22:25.429Z,17.16
2022-08-21T22:24:58.256Z,17.43
2022-08-21T22:27:35.203Z,17.30
2022-08-21T22:30:07.319Z,17.29
2022-08-21T22:32:45.804Z,17.38
2022-08-21T22:35:19.627Z,17.27
2022-08-21T22:37:53.401Z,17.40
2022-08-21T22:40:27.335Z,17.01
2022-08-21T22:43:09.732Z,16.93
2022-08-21T22:45:57.039Z,16.84
2022-08-21T22:48:27.322Z,16.86
2022-08-21T22:51:02.192Z,16.62
2022-08-21T22:53:31.495Z,16.76
2022-08-21T22:56:00.461Z,16.75
2022-08-21T22:58:56.368Z,16.77
2022-08-21T23:01:22.698Z,16.71
2022-08-21T23:03:57.883Z,16.77
2022-08-21T23:06:49.297Z,16.62
2022-08-21T23:09:31.902Z,16.61
2022-08-21T23:12:01.939Z,16.62
2022-08-21T23:14:48.064Z,16.63
2022-08-21T23:17:38.641Z,16.37
2022-08-21T23:20:37.967Z,16.41
2022-08-21T23:23:20.028Z,16.41
2022-08-21T23:26:08.629Z,16.41
2022-08-21T23:28:59.342Z,16.49
2022-08-21T23:31:35.628Z,16.40
2022-08-21T23:34:15.945Z,16.40
2022-08-21T23:37:48.386Z,16.33
2022-08-21T23:40:34.859Z,16.44
2022-08-21T23:43:30.222Z,16.48
2022-08-21T23:46:33.801Z,16.35
2022-08-21T23:49:24.312Z,16.18
2022-08-21T23:52:00.028Z,16.21
2022-08-21T23:54:43.440Z,16.12
2022-08-21T23:57:35.776Z,15.96
